Weed Heights, Nevada
Current Conditions -  °F | °C
As of 11:52 AM on Monday 26 Jan 2015 (Local Time) from KBAN Reporting Station
Clear Clear  
Wind Chill: 53°   Ceiling: Unl
Heat Index: 53°   Visibility: NA
Dew Point: 19°   Wind: 0mph
Humidity: 26%   Direction: NA
Pressure: 30.18"   Gusts: NA
Location:  38.8785°N, 119.096°W
Report Text: KBAN 261952Z AUTO 00000KT CLR 12/M07 A3018 RMK AO2 SLP202 T01171072
Loading
Personal Weather Stations






























Interactive Weather Map New forecast layout! Learn more

10-Day Weather Forecast

Advertisements
Track Severe Weather on mobile